aviador You're here:

UBBL Decoded Metar

in
Report Time2018-01-19 05:00:00
UTC Time2018-01-19 05:25:34
Flight Rules mvfr MVFR
WindCalm
Visibility6000 m
Phenomena:N/A
Clouds:N/A
Expected CloudBase > 400 ft AGL from Temp-Dew spread
CeilingNone
Temp02°C
Dew Point01°C (93% RH)
AAT0.2°C
QNH1009 hPa
Raw Report
METAR UBBL 190500Z 00000KT 6000 NSC 02/01 Q1009
R33/CLRD// NOSIG RMK MT OP=

Extra information for UBBL:More info

Social comments